createdAt,value
2023-03-29T00:00:43.437Z,3.03
2023-03-29T00:03:09.883Z,2.70
2023-03-29T00:05:38.767Z,2.50
2023-03-29T00:08:05.132Z,2.45
2023-03-29T00:10:32.176Z,2.42
2023-03-29T00:12:58.962Z,2.80
2023-03-29T00:15:25.662Z,2.35
2023-03-29T00:17:52.054Z,2.65
2023-03-29T00:20:18.731Z,2.67
2023-03-29T00:22:46.769Z,2.47
2023-03-29T00:25:13.582Z,2.45
2023-03-29T00:27:40.290Z,2.70
2023-03-29T00:32:33.492Z,2.75
2023-03-29T00:37:29.864Z,2.63
2023-03-29T00:39:56.975Z,2.53
2023-03-29T00:42:23.947Z,2.72
2023-03-29T00:44:56.708Z,2.25
2023-03-29T00:47:46.446Z,3.05
2023-03-29T00:50:29.585Z,2.40
2023-03-29T00:53:19.287Z,2.53
2023-03-29T00:55:52.649Z,2.80
2023-03-29T00:58:22.763Z,2.67
2023-03-29T01:00:55.536Z,2.58
2023-03-29T01:03:27.942Z,2.55
2023-03-29T01:06:00.120Z,2.70
2023-03-29T01:08:28.134Z,2.67
2023-03-29T01:11:04.867Z,2.65
2023-03-29T01:13:41.402Z,2.80
2023-03-29T01:16:09.492Z,2.42
2023-03-29T01:18:35.851Z,2.70
2023-03-29T01:21:23.573Z,2.45
2023-03-29T01:24:06.718Z,2.88
2023-03-29T01:26:42.852Z,2.13
2023-03-29T01:29:12.315Z,2.20
2023-03-29T01:31:42.092Z,2.30
2023-03-29T01:34:27.416Z,2.67
2023-03-29T01:37:05.880Z,2.40
2023-03-29T01:39:34.154Z,2.55
2023-03-29T01:42:12.885Z,2.40
2023-03-29T01:44:47.320Z,2.28
2023-03-29T01:47:13.833Z,2.42
2023-03-29T01:49:49.581Z,2.55
2023-03-29T01:52:19.234Z,2.53
2023-03-29T01:55:00.437Z,3.10
2023-03-29T01:57:27.287Z,2.60
2023-03-29T02:02:20.983Z,2.85
2023-03-29T02:04:50.065Z,2.70
2023-03-29T02:07:17.874Z,2.90
2023-03-29T02:09:45.180Z,2.45
2023-03-29T02:12:12.081Z,2.65
2023-03-29T02:14:38.948Z,3.00
2023-03-29T02:17:25.980Z,3.00
2023-03-29T02:19:56.116Z,2.65
2023-03-29T02:22:24.416Z,2.78
2023-03-29T02:24:53.798Z,2.72
2023-03-29T02:27:20.681Z,2.50
2023-03-29T02:29:47.764Z,2.85
2023-03-29T02:32:21.781Z,3.17
2023-03-29T02:35:04.632Z,3.42
2023-03-29T02:37:32.710Z,2.80
2023-03-29T02:39:59.548Z,2.90
2023-03-29T02:42:26.734Z,3.03
2023-03-29T02:44:55.832Z,3.20
2023-03-29T02:47:25.533Z,3.00
2023-03-29T02:49:52.399Z,3.30
2023-03-29T02:52:29.732Z,3.45
2023-03-29T02:54:56.923Z,3.05
2023-03-29T02:57:26.664Z,3.10
2023-03-29T02:59:54.237Z,2.90
2023-03-29T03:02:20.916Z,3.30
2023-03-29T03:07:13.717Z,3.22
2023-03-29T03:09:40.193Z,3.15
2023-03-29T03:12:09.092Z,3.38
2023-03-29T03:14:35.553Z,3.20
2023-03-29T03:17:04.419Z,3.00
2023-03-29T03:19:31.916Z,3.50
2023-03-29T03:21:59.641Z,2.97
2023-03-29T03:24:27.993Z,3.40
2023-03-29T03:26:55.315Z,3.30
2023-03-29T03:29:21.767Z,3.30
2023-03-29T03:32:20.575Z,3.20
2023-03-29T03:35:05.764Z,3.30
2023-03-29T03:39:58.514Z,3.22
2023-03-29T03:42:27.816Z,3.42
2023-03-29T03:44:54.166Z,3.03
2023-03-29T03:47:41.001Z,2.92
2023-03-29T03:50:23.058Z,3.30
2023-03-29T03:52:49.876Z,3.10
2023-03-29T03:55:16.438Z,3.20
2023-03-29T03:57:48.258Z,3.53
2023-03-29T04:00:21.085Z,2.70
2023-03-29T04:03:06.235Z,3.05
2023-03-29T04:05:38.992Z,2.70
2023-03-29T04:08:06.735Z,3.60
2023-03-29T04:10:54.017Z,3.33
2023-03-29T04:13:25.719Z,3.05
2023-03-29T04:16:18.360Z,3.20
2023-03-29T04:18:45.561Z,3.20
2023-03-29T04:23:38.433Z,3.22
2023-03-29T04:26:05.427Z,3.17
2023-03-29T04:28:45.873Z,2.90
2023-03-29T04:31:17.021Z,3.22
2023-03-29T04:34:07.678Z,3.60
2023-03-29T04:36:34.366Z,3.15
2023-03-29T04:39:01.796Z,3.20
2023-03-29T04:41:29.130Z,3.50
2023-03-29T04:44:02.901Z,3.60
2023-03-29T04:46:32.212Z,2.97
2023-03-29T04:51:48.355Z,3.13
2023-03-29T04:54:18.400Z,3.13
2023-03-29T04:57:06.335Z,3.15
2023-03-29T04:59:35.734Z,3.33
2023-03-29T05:02:08.449Z,3.38
2023-03-29T05:04:36.989Z,3.30
2023-03-29T05:07:11.760Z,3.55
2023-03-29T05:09:38.432Z,3.05
2023-03-29T05:14:41.581Z,3.00
2023-03-29T05:17:08.286Z,3.45
2023-03-29T05:19:36.459Z,3.40
2023-03-29T05:22:02.996Z,3.53
2023-03-29T05:27:04.947Z,3.22
2023-03-29T05:29:34.143Z,3.20
2023-03-29T05:32:19.675Z,3.10
2023-03-29T05:34:46.158Z,3.60
2023-03-29T05:37:13.394Z,3.42
2023-03-29T05:39:49.590Z,3.25
2023-03-29T05:42:22.414Z,3.28
2023-03-29T05:44:54.558Z,3.58
2023-03-29T05:47:21.063Z,3.45
2023-03-29T05:49:47.461Z,3.40
2023-03-29T05:52:19.766Z,3.63
2023-03-29T05:54:46.175Z,3.40
2023-03-29T05:57:12.730Z,3.80
2023-03-29T05:59:40.252Z,4.07
2023-03-29T06:02:07.181Z,3.60
2023-03-29T06:04:38.414Z,3.38
2023-03-29T06:07:24.979Z,3.47
2023-03-29T06:10:18.442Z,3.55
2023-03-29T06:12:49.406Z,3.15
2023-03-29T06:15:17.115Z,3.80
2023-03-29T06:17:47.317Z,3.55
2023-03-29T06:20:14.863Z,3.88
2023-03-29T06:22:46.608Z,3.20
2023-03-29T06:25:14.152Z,4.13
2023-03-29T06:27:41.542Z,3.30
2023-03-29T06:30:09.227Z,3.80
2023-03-29T06:32:37.490Z,3.95
2023-03-29T06:35:15.065Z,3.70
2023-03-29T06:37:50.754Z,3.78
2023-03-29T06:40:29.607Z,3.83
2023-03-29T06:42:59.724Z,4.05
2023-03-29T06:45:44.679Z,4.43
2023-03-29T06:48:19.963Z,4.05
2023-03-29T06:53:15.666Z,4.20
2023-03-29T06:55:44.078Z,4.28
2023-03-29T06:58:32.465Z,4.32
2023-03-29T07:01:07.568Z,3.97
2023-03-29T07:03:50.765Z,4.38
2023-03-29T07:06:23.112Z,4.40
2023-03-29T07:08:52.287Z,4.70
2023-03-29T07:11:37.449Z,4.93
2023-03-29T07:14:36.056Z,4.70
2023-03-29T07:17:04.109Z,4.72
2023-03-29T07:19:36.361Z,4.32
2023-03-29T07:22:23.400Z,4.53
2023-03-29T07:24:54.580Z,4.60
2023-03-29T07:27:21.018Z,4.80
2023-03-29T07:29:50.010Z,4.88
2023-03-29T07:32:18.012Z,4.80
2023-03-29T07:34:44.476Z,4.72
2023-03-29T07:37:19.150Z,4.80
2023-03-29T07:39:46.378Z,4.47
2023-03-29T07:42:30.230Z,4.60
2023-03-29T07:44:58.475Z,4.70
2023-03-29T07:47:29.860Z,4.72
2023-03-29T07:49:56.606Z,5.07
2023-03-29T07:52:23.127Z,5.40
2023-03-29T07:57:41.502Z,3.85
2023-03-29T08:02:54.067Z,5.00
2023-03-29T08:07:57.400Z,5.25
2023-03-29T08:10:44.569Z,5.38
2023-03-29T08:13:43.030Z,6.30
2023-03-29T08:16:38.608Z,6.00
2023-03-29T08:19:10.104Z,6.82
2023-03-29T08:21:50.564Z,6.40
2023-03-29T08:24:20.824Z,6.80
2023-03-29T08:26:51.699Z,6.22
2023-03-29T08:29:19.693Z,6.88
2023-03-29T08:31:46.165Z,6.47
2023-03-29T08:34:12.516Z,5.90
2023-03-29T08:36:44.790Z,6.25
2023-03-29T08:39:20.456Z,6.50
2023-03-29T08:42:09.170Z,6.85
2023-03-29T08:44:46.966Z,5.93
2023-03-29T08:47:26.883Z,6.68
2023-03-29T08:49:55.456Z,7.35
2023-03-29T08:52:38.815Z,6.45
2023-03-29T08:55:39.171Z,6.20
2023-03-29T08:58:26.969Z,6.35
2023-03-29T09:00:54.455Z,7.55
2023-03-29T09:03:22.564Z,6.60
2023-03-29T09:05:57.657Z,6.60
2023-03-29T09:08:25.993Z,6.10
2023-03-29T09:11:00.513Z,7.65
2023-03-29T09:13:41.825Z,7.65
2023-03-29T09:16:14.472Z,7.50
2023-03-29T09:18:47.440Z,7.47
2023-03-29T09:21:22.300Z,7.38
2023-03-29T09:23:52.707Z,7.03
2023-03-29T09:27:05.200Z,7.00
2023-03-29T09:29:55.659Z,7.65
2023-03-29T09:32:44.233Z,7.22
2023-03-29T09:35:21.624Z,7.15
2023-03-29T09:37:51.384Z,7.50
2023-03-29T09:40:20.091Z,7.80
2023-03-29T09:43:04.184Z,7.63
2023-03-29T09:45:31.094Z,8.15
2023-03-29T09:47:59.062Z,7.22
2023-03-29T09:50:34.065Z,7.07
2023-03-29T09:53:04.939Z,7.55
2023-03-29T09:55:37.114Z,8.00
2023-03-29T09:58:43.900Z,7.90
2023-03-29T10:01:12.644Z,7.70
2023-03-29T10:03:40.014Z,8.05
2023-03-29T10:06:12.644Z,8.45
2023-03-29T10:08:49.524Z,7.70
2023-03-29T10:11:28.773Z,8.40
2023-03-29T10:13:57.136Z,7.80
2023-03-29T10:16:25.749Z,8.43
2023-03-29T10:18:54.478Z,8.63
2023-03-29T10:21:21.994Z,8.80
2023-03-29T10:23:49.228Z,7.90
2023-03-29T10:26:27.884Z,9.00
2023-03-29T10:28:54.923Z,9.40
2023-03-29T10:31:22.499Z,9.48
2023-03-29T10:33:56.438Z,10.43
2023-03-29T10:36:24.085Z,10.90
2023-03-29T10:38:51.653Z,10.82
2023-03-29T10:41:20.430Z,9.90
2023-03-29T10:43:49.413Z,10.35
2023-03-29T10:46:19.416Z,10.50
2023-03-29T10:48:47.436Z,10.57
2023-03-29T10:51:14.376Z,10.38
2023-03-29T10:53:41.556Z,10.77
2023-03-29T10:56:27.942Z,10.65
2023-03-29T10:58:54.348Z,11.13
2023-03-29T11:01:25.580Z,10.43
2023-03-29T11:04:05.764Z,11.30
2023-03-29T11:06:47.401Z,10.35
2023-03-29T11:09:22.612Z,11.05
2023-03-29T11:12:15.000Z,11.27
2023-03-29T11:15:09.068Z,11.60
2023-03-29T11:17:38.544Z,11.10
2023-03-29T11:20:15.863Z,11.10
2023-03-29T11:22:53.228Z,10.75
2023-03-29T11:25:31.014Z,10.52
2023-03-29T11:28:07.645Z,10.77
2023-03-29T11:30:34.029Z,11.40
2023-03-29T11:35:39.923Z,10.32
2023-03-29T11:38:14.437Z,10.60
2023-03-29T11:40:40.860Z,10.30
2023-03-29T11:43:17.182Z,10.57
2023-03-29T11:53:05.188Z,10.20
2023-03-29T11:55:32.699Z,11.40
2023-03-29T11:58:01.240Z,11.77
2023-03-29T12:00:27.721Z,13.48
2023-03-29T12:03:13.121Z,12.77
2023-03-29T12:05:45.542Z,13.93
2023-03-29T12:08:20.501Z,13.18
2023-03-29T12:10:53.007Z,13.75
2023-03-29T12:13:26.521Z,14.43
2023-03-29T12:15:56.907Z,13.18
2023-03-29T12:18:23.269Z,13.65
2023-03-29T12:20:55.989Z,12.80
2023-03-29T12:23:23.411Z,13.07
2023-03-29T12:25:57.133Z,13.40
2023-03-29T12:28:38.899Z,14.15
2023-03-29T12:31:08.410Z,12.77
2023-03-29T12:33:37.763Z,14.13
2023-03-29T12:36:52.031Z,16.13
2023-03-29T12:39:37.346Z,21.53
2023-03-29T12:42:23.717Z,22.58
2023-03-29T12:50:01.959Z,18.52
2023-03-29T12:52:28.319Z,18.70
2023-03-29T12:54:56.263Z,16.80
2023-03-29T12:57:28.032Z,19.75
2023-03-29T12:59:54.939Z,20.48
2023-03-29T13:02:21.682Z,20.38
2023-03-29T13:04:49.843Z,16.40
2023-03-29T13:07:22.591Z,14.48
2023-03-29T13:10:03.385Z,14.82
2023-03-29T13:12:39.378Z,14.35
2023-03-29T13:15:07.170Z,13.27
2023-03-29T13:17:46.245Z,12.98
2023-03-29T13:20:18.658Z,13.95
2023-03-29T13:22:50.499Z,13.70
2023-03-29T13:25:26.119Z,14.45
2023-03-29T13:27:58.598Z,13.93
2023-03-29T13:30:44.022Z,14.43
2023-03-29T13:33:16.469Z,15.52
2023-03-29T13:36:02.003Z,15.85
2023-03-29T13:38:31.919Z,14.68
2023-03-29T13:41:04.909Z,14.48
2023-03-29T13:43:36.090Z,13.77
2023-03-29T13:46:04.273Z,14.68
2023-03-29T13:48:33.566Z,14.63
2023-03-29T13:51:02.086Z,14.32
2023-03-29T13:53:34.886Z,13.68
2023-03-29T13:56:01.746Z,13.57
2023-03-29T13:58:43.715Z,13.77
2023-03-29T14:01:19.335Z,13.48
2023-03-29T14:03:48.526Z,14.05
2023-03-29T14:06:17.620Z,14.27
2023-03-29T14:08:44.192Z,14.93
2023-03-29T14:13:36.955Z,12.60
2023-03-29T14:18:36.673Z,12.05
2023-03-29T14:21:03.528Z,11.98
2023-03-29T14:23:31.717Z,13.00
2023-03-29T14:26:06.032Z,12.35
2023-03-29T14:28:32.840Z,12.25
2023-03-29T14:30:59.370Z,11.60
2023-03-29T14:35:57.091Z,12.00
2023-03-29T14:38:24.192Z,11.77
2023-03-29T14:40:50.916Z,11.13
2023-03-29T14:43:22.480Z,10.95
2023-03-29T14:45:49.164Z,11.07
2023-03-29T14:48:15.875Z,11.32
2023-03-29T14:50:42.967Z,9.57
2023-03-29T14:53:15.753Z,9.20
2023-03-29T14:55:44.614Z,9.68
2023-03-29T14:58:17.882Z,9.80
2023-03-29T15:00:47.634Z,9.48
2023-03-29T15:03:15.246Z,9.50
2023-03-29T15:05:44.042Z,9.27
2023-03-29T15:08:14.853Z,9.00
2023-03-29T15:10:44.759Z,9.45
2023-03-29T15:13:16.475Z,8.88
2023-03-29T15:15:42.992Z,9.60
2023-03-29T15:18:11.862Z,8.10
2023-03-29T15:20:39.229Z,7.32
2023-03-29T15:23:14.716Z,6.75
2023-03-29T15:25:53.447Z,7.85
2023-03-29T15:28:31.155Z,6.55
2023-03-29T15:31:18.291Z,6.82
2023-03-29T15:33:45.087Z,6.60
2023-03-29T15:36:13.219Z,7.15
2023-03-29T15:38:44.753Z,6.50
2023-03-29T15:41:12.379Z,6.05
2023-03-29T15:43:38.864Z,6.35
2023-03-29T15:46:05.525Z,6.63
2023-03-29T15:48:33.831Z,6.40
2023-03-29T15:51:05.462Z,5.90
2023-03-29T15:53:38.747Z,6.10
2023-03-29T15:56:07.468Z,6.15
2023-03-29T15:58:34.677Z,6.30
2023-03-29T16:01:11.013Z,6.07
2023-03-29T16:03:38.287Z,5.65
2023-03-29T16:06:05.049Z,5.30
2023-03-29T16:08:31.840Z,5.80
2023-03-29T16:13:24.547Z,5.45
2023-03-29T16:15:51.143Z,5.53
2023-03-29T16:18:17.642Z,5.88
2023-03-29T16:25:39.744Z,5.22
2023-03-29T16:28:07.727Z,5.15
2023-03-29T16:30:35.306Z,5.70
2023-03-29T16:33:06.307Z,5.85
2023-03-29T16:35:33.674Z,5.85
2023-03-29T16:38:00.322Z,6.03
2023-03-29T16:40:26.750Z,5.82
2023-03-29T16:42:53.190Z,6.10
2023-03-29T16:45:19.665Z,6.40
2023-03-29T16:50:17.968Z,6.22
2023-03-29T16:52:45.036Z,5.55
2023-03-29T16:55:12.502Z,5.90
2023-03-29T16:57:40.021Z,6.25
2023-03-29T17:00:07.429Z,6.07
2023-03-29T17:02:33.908Z,6.40
2023-03-29T17:07:27.054Z,6.30
2023-03-29T17:09:53.415Z,6.25
2023-03-29T17:12:21.191Z,5.85
2023-03-29T17:14:48.042Z,5.85
2023-03-29T17:17:14.550Z,6.18
2023-03-29T17:22:07.480Z,5.20
2023-03-29T17:34:19.386Z,5.70
2023-03-29T17:39:15.261Z,5.85
2023-03-29T17:41:42.043Z,6.50
2023-03-29T17:44:08.606Z,5.68
2023-03-29T17:49:01.348Z,6.25
2023-03-29T17:51:27.938Z,6.20
2023-03-29T17:56:21.644Z,6.13
2023-03-29T17:58:49.044Z,7.40
2023-03-29T18:01:16.113Z,6.97
2023-03-29T18:03:42.543Z,6.90
2023-03-29T18:06:09.007Z,6.28
2023-03-29T18:08:35.747Z,6.93
2023-03-29T18:11:06.758Z,6.70
2023-03-29T18:13:33.187Z,7.00
2023-03-29T18:15:59.694Z,8.90
2023-03-29T18:20:53.398Z,8.32
2023-03-29T18:23:19.783Z,8.18
2023-03-29T18:25:46.121Z,7.53
2023-03-29T18:28:12.486Z,7.97
2023-03-29T18:30:38.818Z,8.45
2023-03-29T18:33:06.083Z,8.35
2023-03-29T18:35:32.649Z,8.23
2023-03-29T18:45:18.995Z,7.00
2023-03-29T18:47:45.424Z,7.03
2023-03-29T18:50:13.219Z,8.45
2023-03-29T18:52:40.012Z,11.88
2023-03-29T18:55:07.017Z,11.63
2023-03-29T18:57:33.404Z,9.43
2023-03-29T19:00:00.002Z,7.53
2023-03-29T19:02:26.479Z,8.10
2023-03-29T19:04:52.892Z,8.00
2023-03-29T19:07:20.534Z,7.57
2023-03-29T19:09:46.913Z,7.88
2023-03-29T19:12:13.274Z,7.47
2023-03-29T19:14:39.903Z,7.07
2023-03-29T19:19:32.713Z,6.85
2023-03-29T19:22:00.597Z,6.70
2023-03-29T19:24:27.384Z,6.53
2023-03-29T19:26:53.890Z,6.50
2023-03-29T19:29:20.519Z,6.47
2023-03-29T19:41:33.776Z,11.40
2023-03-29T19:44:00.356Z,7.80
2023-03-29T19:48:56.052Z,6.75
2023-03-29T19:51:23.442Z,6.38
2023-03-29T19:53:49.920Z,6.90
2023-03-29T19:56:16.362Z,7.43
2023-03-29T19:58:43.077Z,7.03
2023-03-29T20:06:02.735Z,7.18
2023-03-29T20:08:29.160Z,7.53
2023-03-29T20:10:59.244Z,7.65
2023-03-29T20:13:37.655Z,8.40
2023-03-29T20:16:09.319Z,8.02
2023-03-29T20:18:38.254Z,7.90
2023-03-29T20:21:05.728Z,8.82
2023-03-29T20:23:32.356Z,10.40
2023-03-29T20:25:58.971Z,10.60
2023-03-29T20:30:52.298Z,11.48
2023-03-29T20:33:19.005Z,11.15
2023-03-29T20:35:46.080Z,10.82
2023-03-29T20:38:12.818Z,10.25
2023-03-29T20:43:12.989Z,9.15
2023-03-29T20:45:52.106Z,9.25
2023-03-29T20:48:21.615Z,10.20
2023-03-29T20:50:48.371Z,8.63
2023-03-29T20:53:15.192Z,8.27
2023-03-29T20:55:42.652Z,7.65
2023-03-29T20:58:09.291Z,7.78
2023-03-29T21:05:31.763Z,7.38
2023-03-29T21:07:58.423Z,8.60
2023-03-29T21:10:25.636Z,7.38
2023-03-29T21:12:52.169Z,6.95
2023-03-29T21:15:18.631Z,7.35
2023-03-29T21:17:45.243Z,6.60
2023-03-29T21:22:43.121Z,6.80
2023-03-29T21:25:10.772Z,7.13
2023-03-29T21:27:37.819Z,6.40
2023-03-29T21:30:05.413Z,7.53
2023-03-29T21:32:31.879Z,6.85
2023-03-29T21:35:00.191Z,6.65
2023-03-29T21:37:26.641Z,6.63
2023-03-29T21:39:53.013Z,6.63
2023-03-29T21:42:19.534Z,7.22
2023-03-29T21:44:46.196Z,6.53
2023-03-29T21:52:06.309Z,6.72
2023-03-29T22:06:59.930Z,6.22
2023-03-29T22:09:26.617Z,6.70
2023-03-29T22:16:47.061Z,6.07
2023-03-29T22:19:13.610Z,6.40
2023-03-29T22:21:40.687Z,6.18
2023-03-29T22:24:07.419Z,5.72
2023-03-29T22:26:33.885Z,6.00
2023-03-29T22:29:00.897Z,5.80
2023-03-29T22:31:28.537Z,6.43
2023-03-29T22:33:55.653Z,5.47
2023-03-29T22:36:23.358Z,4.78
2023-03-29T22:38:50.500Z,5.40
2023-03-29T22:41:17.636Z,4.72
2023-03-29T22:43:44.340Z,5.28
2023-03-29T22:46:11.706Z,4.75
2023-03-29T22:48:38.166Z,5.00
2023-03-29T22:51:05.717Z,4.65
2023-03-29T22:53:32.972Z,4.72
2023-03-29T22:55:59.467Z,4.15
2023-03-29T22:58:26.078Z,5.05
2023-03-29T23:13:10.320Z,4.50
2023-03-29T23:15:38.094Z,4.18
2023-03-29T23:18:05.433Z,4.20
2023-03-29T23:20:32.205Z,4.32
2023-03-29T23:22:59.411Z,4.10
2023-03-29T23:25:26.250Z,4.72
2023-03-29T23:27:53.608Z,4.60
2023-03-29T23:30:21.635Z,4.40
2023-03-29T23:32:48.780Z,4.60
2023-03-29T23:35:15.951Z,4.60
2023-03-29T23:37:43.009Z,5.00
2023-03-29T23:40:11.624Z,4.53
2023-03-29T23:42:39.296Z,4.35
2023-03-29T23:45:07.109Z,4.05
2023-03-29T23:47:34.384Z,3.95
2023-03-29T23:50:02.170Z,4.35
2023-03-29T23:52:29.552Z,4.07
2023-03-29T23:54:56.123Z,4.45
2023-03-29T23:59:52.646Z,4.40
